Time;durP1;ratioP1;P1;durP2;ratioP2;P2;SDS_P1;SDS_P2;PMS_P1;PMS_P2;Temp;Humidity;BMP_temperature;BMP_pressure;BME280_temperature;BME280_humidity;BME280_pressure;Samples;Min_cycle;Max_cycle;Signal;HPM_P1;HPM_P2
2021/12/13 00:02:03;;;;;;;12.20;7.25;;;;;;;;;;4970577;28;20027;-72
2021/12/13 00:04:33;;;;;;;13.67;6.77;;;;;;;;;;4970525;28;20035;-70
2021/12/13 00:07:03;;;;;;;9.90;6.33;;;;;;;;;;4970469;28;20033;-71
2021/12/13 00:09:39;;;;;;;9.30;6.17;;;;;;;;;;4953306;28;20064;-74
2021/12/13 00:12:07;;;;;;;12.30;7.27;;;;;;;;;;4968734;28;20023;-72
2021/12/13 00:14:46;;;;;;;9.50;6.00;;;;;;;;;;4970254;28;20031;-73
2021/12/13 00:17:37;;;;;;;11.73;6.40;;;;;;;;;;4972058;28;20360;-71
2021/12/13 00:20:16;;;;;;;11.45;6.78;;;;;;;;;;4972137;28;20029;-71
2021/12/13 00:22:51;;;;;;;11.00;7.37;;;;;;;;;;4972077;28;20514;-71
2021/12/13 00:25:21;;;;;;;15.33;7.10;;;;;;;;;;4972251;28;20026;-72
2021/12/13 00:28:04;;;;;;;8.53;5.90;;;;;;;;;;4972373;28;20609;-71
2021/12/13 00:30:40;;;;;;;12.57;6.47;;;;;;;;;;4973555;28;20026;-71
2021/12/13 00:33:14;;;;;;;12.33;5.60;;;;;;;;;;4973450;28;20048;-71
2021/12/13 00:35:46;;;;;;;9.47;6.03;;;;;;;;;;4972190;28;20030;-72
2021/12/13 00:38:14;;;;;;;9.27;6.40;;;;;;;;;;4971527;28;20141;-70
2021/12/13 00:40:47;;;;;;;10.97;6.03;;;;;;;;;;4971913;28;20093;-70
2021/12/13 00:43:45;;;;;;;9.37;6.00;;;;;;;;;;4973181;28;20041;-70
2021/12/13 00:46:14;;;;;;;11.87;6.63;;;;;;;;;;4971681;28;20247;-71
2021/12/13 00:48:44;;;;;;;11.10;6.20;;;;;;;;;;4973355;28;20057;-71
2021/12/13 00:51:13;;;;;;;9.80;5.67;;;;;;;;;;4971508;28;20027;-71
2021/12/13 00:53:46;;;;;;;10.50;6.37;;;;;;;;;;4973203;28;20220;-71
2021/12/13 00:56:49;;;;;;;11.37;6.13;;;;;;;;;;4971949;28;20026;-72
2021/12/13 00:59:39;;;;;;;10.90;6.03;;;;;;;;;;4971499;28;20129;-72
2021/12/13 01:02:07;;;;;;;9.33;5.63;;;;;;;;;;4971401;28;20170;-71
2021/12/13 01:04:52;;;;;;;7.27;5.00;;;;;;;;;;4971642;28;20204;-72
2021/12/13 01:07:18;;;;;;;8.80;5.30;;;;;;;;;;4972815;28;20026;-73
2021/12/13 01:10:25;;;;;;;8.43;5.63;;;;;;;;;;4973050;28;20038;-72
2021/12/13 01:12:52;;;;;;;7.27;5.13;;;;;;;;;;4971412;28;20050;-71
2021/12/13 01:15:31;;;;;;;10.70;5.53;;;;;;;;;;4972653;28;20026;-70
2021/12/13 01:18:27;;;;;;;9.57;5.73;;;;;;;;;;4972786;28;20380;-72
2021/12/13 01:21:54;;;;;;;9.10;5.43;;;;;;;;;;4971201;28;20479;-72
2021/12/13 01:23:52;;;;;;;8.60;4.70;;;;;;;;;;4975172;28;20043;-71
2021/12/13 01:28:54;;;;;;;10.13;5.22;;;;;;;;;;4972807;28;20069;-72
2021/12/13 01:31:43;;;;;;;9.80;5.17;;;;;;;;;;4972768;28;20042;-71
2021/12/13 01:34:10;;;;;;;8.87;6.00;;;;;;;;;;4973281;28;20035;-71
2021/12/13 01:36:47;;;;;;;7.27;5.03;;;;;;;;;;4970991;28;20050;-72
2021/12/13 01:39:21;;;;;;;8.10;5.30;;;;;;;;;;4971424;28;20023;-70
2021/12/13 01:41:52;;;;;;;10.73;5.30;;;;;;;;;;4972352;28;20026;-69
2021/12/13 01:44:25;;;;;;;8.13;5.43;;;;;;;;;;4973313;28;20034;-71
2021/12/13 01:46:57;;;;;;;8.53;5.07;;;;;;;;;;4972301;28;20043;-71
2021/12/13 01:49:32;;;;;;;7.93;4.97;;;;;;;;;;4972511;28;20110;-70
2021/12/13 01:51:59;;;;;;;9.13;5.63;;;;;;;;;;4970984;28;20105;-71
2021/12/13 01:54:27;;;;;;;8.67;4.80;;;;;;;;;;4972151;28;20054;-73
2021/12/13 01:57:23;;;;;;;9.40;5.30;;;;;;;;;;4970940;28;20436;-71
2021/12/13 01:59:56;;;;;;;10.33;5.70;;;;;;;;;;4971794;28;20038;-70
2021/12/13 02:02:32;;;;;;;8.47;5.53;;;;;;;;;;4972252;28;20042;-71
2021/12/13 02:05:06;;;;;;;7.80;4.37;;;;;;;;;;4972010;28;20026;-72
2021/12/13 02:08:10;;;;;;;7.73;5.10;;;;;;;;;;4971277;28;20039;-72
2021/12/13 02:10:43;;;;;;;7.93;4.80;;;;;;;;;;4970133;28;20069;-71
2021/12/13 02:13:17;;;;;;;6.57;4.97;;;;;;;;;;4971545;28;20027;-72
2021/12/13 02:18:32;;;;;;;8.67;4.87;;;;;;;;;;4972056;28;20191;-72
2021/12/13 02:21:11;;;;;;;9.67;4.90;;;;;;;;;;4971497;28;20031;-71
2021/12/13 02:23:43;;;;;;;9.70;5.87;;;;;;;;;;4970169;28;20399;-71
2021/12/13 02:26:09;;;;;;;;;;;;;;;;;;4971824;28;20031;-72
2021/12/13 02:28:39;;;;;;;8.00;4.90;;;;;;;;;;4971636;28;19968;-71
2021/12/13 02:31:27;;;;;;;7.93;5.27;;;;;;;;;;4969910;28;20031;-71
2021/12/13 02:34:04;;;;;;;12.23;5.13;;;;;;;;;;4971550;28;20023;-71
2021/12/13 02:36:34;;;;;;;8.83;4.93;;;;;;;;;;4971059;28;20502;-71
2021/12/13 02:39:07;;;;;;;7.47;4.97;;;;;;;;;;4969809;28;20094;-72
2021/12/13 02:41:33;;;;;;;9.47;4.87;;;;;;;;;;4971369;28;20464;-71
2021/12/13 02:44:05;;;;;;;6.53;4.63;;;;;;;;;;4971183;28;20058;-71
2021/12/13 02:46:32;;;;;;;9.07;5.07;;;;;;;;;;4969818;28;20042;-71
2021/12/13 02:49:04;;;;;;;7.37;4.40;;;;;;;;;;4971231;28;20603;-72
2021/12/13 02:51:37;;;;;;;6.13;4.63;;;;;;;;;;4969819;28;20023;-72
2021/12/13 02:54:19;;;;;;;8.63;4.93;;;;;;;;;;4969566;28;20483;-72
2021/12/13 02:56:55;;;;;;;10.70;5.07;;;;;;;;;;4969714;28;20022;-71
2021/12/13 02:59:26;;;;;;;8.03;4.63;;;;;;;;;;4970947;28;20035;-72
2021/12/13 03:02:19;;;;;;;7.20;4.63;;;;;;;;;;4970749;28;20523;-71
2021/12/13 03:04:46;;;;;;;8.98;4.70;;;;;;;;;;4969532;28;20035;-71
2021/12/13 03:07:18;;;;;;;8.07;4.63;;;;;;;;;;4970754;28;20034;-71
2021/12/13 03:09:44;;;;;;;;;;;;;;;;;;4971278;28;20502;-71
2021/12/13 03:12:13;;;;;;;6.50;4.50;;;;;;;;;;4969523;28;19918;-71
2021/12/13 03:14:47;;;;;;;7.03;4.50;;;;;;;;;;4969288;28;20524;-70
2021/12/13 03:17:27;;;;;;;7.83;4.53;;;;;;;;;;4969357;28;20030;-71
2021/12/13 03:20:02;;;;;;;5.70;4.20;;;;;;;;;;4969764;28;20033;-72
2021/12/13 03:22:46;;;;;;;6.87;4.53;;;;;;;;;;4969369;28;20026;-73
2021/12/13 03:25:18;;;;;;;5.70;4.43;;;;;;;;;;4969558;28;20031;-71
2021/12/13 03:28:09;;;;;;;6.80;5.00;;;;;;;;;;4970760;28;20031;-71
2021/12/13 03:30:43;;;;;;;6.73;4.33;;;;;;;;;;4970815;28;20097;-72
2021/12/13 03:33:12;;;;;;;6.87;4.10;;;;;;;;;;4970475;28;20106;-71
2021/12/13 03:36:08;;;;;;;9.07;4.87;;;;;;;;;;4969354;28;20553;-71
2021/12/13 03:38:39;;;;;;;7.00;4.20;;;;;;;;;;4970617;28;20062;-72
2021/12/13 03:41:09;;;;;;;9.10;5.78;;;;;;;;;;4969374;28;20364;-72
2021/12/13 03:43:58;;;;;;;6.63;4.40;;;;;;;;;;4970552;28;20081;-72
2021/12/13 03:46:28;;;;;;;6.83;4.63;;;;;;;;;;4969092;28;20050;-70
2021/12/13 03:48:55;;;;;;;7.60;4.37;;;;;;;;;;4952982;28;20419;-72
2021/12/13 03:51:27;;;;;;;6.90;4.20;;;;;;;;;;4973407;28;20046;-72
2021/12/13 03:53:55;;;;;;;6.50;4.67;;;;;;;;;;4973763;28;20483;-71
2021/12/13 03:56:30;;;;;;;6.63;4.47;;;;;;;;;;4974859;28;20348;-71
2021/12/13 03:59:00;;;;;;;6.83;4.70;;;;;;;;;;4973680;28;20034;-71
2021/12/13 04:01:39;;;;;;;6.83;4.83;;;;;;;;;;4973186;28;20031;-70
2021/12/13 04:04:09;;;;;;;10.60;5.43;;;;;;;;;;4973716;28;20419;-72
2021/12/13 04:06:43;;;;;;;7.73;4.87;;;;;;;;;;4974130;28;20062;-72
2021/12/13 04:09:09;;;;;;;6.67;4.27;;;;;;;;;;4972463;28;20023;-72
2021/12/13 04:11:35;;;;;;;5.70;4.43;;;;;;;;;;4972476;28;20077;-71
2021/12/13 04:14:15;;;;;;;7.83;5.13;;;;;;;;;;4973995;28;20038;-70
2021/12/13 04:17:06;;;;;;;7.13;4.47;;;;;;;;;;4972356;28;20040;-72
2021/12/13 04:19:45;;;;;;;7.33;4.70;;;;;;;;;;4972607;28;20293;-69
2021/12/13 04:22:11;;;;;;;7.10;4.63;;;;;;;;;;4972339;28;20057;-70
2021/12/13 04:24:51;;;;;;;6.77;5.00;;;;;;;;;;4972903;28;20369;-70
2021/12/13 04:27:23;;;;;;;7.33;3.97;;;;;;;;;;4974222;28;20031;-71
2021/12/13 04:29:51;;;;;;;8.10;4.20;;;;;;;;;;4973426;28;20053;-70
2021/12/13 04:32:23;;;;;;;11.13;5.30;;;;;;;;;;4972276;28;20513;-71
2021/12/13 04:34:51;;;;;;;;;;;;;;;;;;4972731;28;20054;-71
2021/12/13 04:37:21;;;;;;;6.57;4.27;;;;;;;;;;4971633;28;19988;-72
2021/12/13 04:39:52;;;;;;;7.07;4.53;;;;;;;;;;4973388;28;20034;-72
2021/12/13 04:42:21;;;;;;;7.77;4.93;;;;;;;;;;4971708;28;20043;-71
2021/12/13 04:44:56;;;;;;;6.77;4.43;;;;;;;;;;4971978;28;20591;-71
2021/12/13 04:47:37;;;;;;;8.80;4.80;;;;;;;;;;4973071;28;20026;-71
2021/12/13 04:50:15;;;;;;;8.83;4.53;;;;;;;;;;4972263;28;20022;-70
2021/12/13 04:52:41;;;;;;;8.37;4.80;;;;;;;;;;4973276;28;20031;-72
2021/12/13 04:55:27;;;;;;;7.70;5.30;;;;;;;;;;4971912;28;20035;-71
2021/12/13 04:57:56;;;;;;;5.77;4.40;;;;;;;;;;4971869;28;20343;-72
2021/12/13 05:00:26;;;;;;;8.43;5.27;;;;;;;;;;4973081;28;20085;-71
2021/12/13 05:02:58;;;;;;;9.10;5.77;;;;;;;;;;4971680;28;20086;-71
2021/12/13 05:05:23;;;;;;;7.32;4.50;;;;;;;;;;4972952;28;20027;-71
2021/12/13 05:07:51;;;;;;;6.23;4.40;;;;;;;;;;4973086;28;20042;-72
2021/12/13 05:10:19;;;;;;;7.50;4.70;;;;;;;;;;4971342;28;20435;-70
2021/12/13 05:13:24;;;;;;;9.07;4.83;;;;;;;;;;4972823;28;20110;-72
2021/12/13 05:16:01;;;;;;;7.57;5.20;;;;;;;;;;4980641;28;20558;-70
2021/12/13 05:18:32;;;;;;;8.27;4.97;;;;;;;;;;4971446;28;20027;-71
2021/12/13 05:21:03;;;;;;;9.67;5.17;;;;;;;;;;4971191;28;20050;-71
2021/12/13 05:23:29;;;;;;;11.17;5.20;;;;;;;;;;4971265;28;20031;-71
2021/12/13 05:25:59;;;;;;;9.07;4.90;;;;;;;;;;4972720;28;20026;-73
2021/12/13 05:28:36;;;;;;;10.33;5.30;;;;;;;;;;4971200;28;20026;-72
2021/12/13 05:31:09;;;;;;;8.90;5.70;;;;;;;;;;4971201;28;20490;-69
2021/12/13 05:33:39;;;;;;;7.07;4.93;;;;;;;;;;4971083;28;20495;-72
2021/12/13 05:36:17;;;;;;;8.40;4.47;;;;;;;;;;4971300;28;20023;-72
2021/12/13 05:38:45;;;;;;;7.87;5.07;;;;;;;;;;4974032;28;20068;-71
2021/12/13 05:41:19;;;;;;;8.87;5.30;;;;;;;;;;4974400;28;21996;-72
2021/12/13 05:44:09;;;;;;;7.70;4.57;;;;;;;;;;4974815;28;20031;-71
2021/12/13 05:46:47;;;;;;;8.40;5.80;;;;;;;;;;4974831;28;20030;-69
2021/12/13 05:49:20;;;;;;;8.97;5.20;;;;;;;;;;4972207;28;20034;-71
2021/12/13 05:51:51;;;;;;;9.37;6.53;;;;;;;;;;4972182;28;20109;-70
2021/12/13 05:54:30;;;;;;;9.33;5.17;;;;;;;;;;4972241;28;20053;-72
2021/12/13 05:57:17;;;;;;;8.57;4.90;;;;;;;;;;4972251;28;20057;-71
2021/12/13 06:00:00;;;;;;;8.20;4.60;;;;;;;;;;4970863;28;20030;-72
2021/12/13 06:02:47;;;;;;;8.13;4.93;;;;;;;;;;4970568;28;20039;-73
2021/12/13 06:05:18;;;;;;;6.23;4.60;;;;;;;;;;4971905;28;20035;-73
2021/12/13 06:07:54;;;;;;;5.90;4.37;;;;;;;;;;4970489;28;20122;-72
2021/12/13 06:10:21;;;;;;;7.90;5.20;;;;;;;;;;4970031;28;20056;-71
2021/12/13 06:12:52;;;;;;;8.77;4.80;;;;;;;;;;4969804;28;20077;-70
2021/12/13 06:15:17;;;;;;;8.53;4.97;;;;;;;;;;4971331;28;20488;-72
2021/12/13 06:17:51;;;;;;;8.23;4.70;;;;;;;;;;4970279;28;20093;-73
2021/12/13 06:20:26;;;;;;;8.07;5.40;;;;;;;;;;4971560;28;20483;-71
2021/12/13 06:23:11;;;;;;;9.00;5.07;;;;;;;;;;4970398;28;20058;-72
2021/12/13 06:25:39;;;;;;;7.43;4.77;;;;;;;;;;4970289;28;20489;-71
2021/12/13 06:28:07;;;;;;;11.23;5.67;;;;;;;;;;4970429;28;20023;-72
2021/12/13 06:30:38;;;;;;;7.33;4.50;;;;;;;;;;4972074;28;20118;-72
2021/12/13 06:33:09;;;;;;;7.70;5.03;;;;;;;;;;4972707;28;20031;-71
2021/12/13 06:35:48;;;;;;;10.65;4.93;;;;;;;;;;4970306;28;20030;-72
2021/12/13 06:38:20;;;;;;;8.60;4.87;;;;;;;;;;4970443;28;20050;-70
2021/12/13 06:41:06;;;;;;;8.80;5.20;;;;;;;;;;4970726;28;20030;-72
2021/12/13 06:43:41;;;;;;;9.13;5.50;;;;;;;;;;4972222;28;20045;-72
2021/12/13 06:46:24;;;;;;;7.90;5.17;;;;;;;;;;4970641;28;20093;-72
2021/12/13 06:48:59;;;;;;;6.73;4.83;;;;;;;;;;4970026;28;20089;-73
2021/12/13 06:51:42;;;;;;;8.20;5.17;;;;;;;;;;4971156;28;20053;-72
2021/12/13 06:54:12;;;;;;;7.73;4.83;;;;;;;;;;4969870;28;20423;-73
2021/12/13 06:56:41;;;;;;;7.90;5.77;;;;;;;;;;4970136;28;20460;-73
2021/12/13 06:59:10;;;;;;;8.13;5.60;;;;;;;;;;4960884;28;20870;-72
2021/12/13 07:01:39;;;;;;;9.30;5.23;;;;;;;;;;4966138;28;20070;-73
2021/12/13 07:04:08;;;;;;;6.60;4.60;;;;;;;;;;4949078;28;20061;-72
2021/12/13 07:06:34;;;;;;;8.23;5.03;;;;;;;;;;4966247;28;20047;-72
2021/12/13 07:09:13;;;;;;;8.53;5.00;;;;;;;;;;4963249;28;20774;-73
2021/12/13 07:11:57;;;;;;;9.90;5.33;;;;;;;;;;4964945;28;20030;-73
2021/12/13 07:14:36;;;;;;;8.17;5.23;;;;;;;;;;4962322;28;20026;-74
2021/12/13 07:17:22;;;;;;;10.03;6.23;;;;;;;;;;4968442;28;20188;-74
2021/12/13 07:19:51;;;;;;;8.50;5.20;;;;;;;;;;4950301;28;20606;-73
2021/12/13 07:22:23;;;;;;;12.70;5.53;;;;;;;;;;4966179;28;20035;-74
2021/12/13 07:25:10;;;;;;;10.00;5.27;;;;;;;;;;4967549;28;20041;-73
2021/12/13 07:27:43;;;;;;;9.07;5.33;;;;;;;;;;4973149;28;20114;-74
2021/12/13 07:30:16;;;;;;;11.17;5.60;;;;;;;;;;4974496;28;20082;-73
2021/12/13 07:32:53;;;;;;;11.40;5.83;;;;;;;;;;4972504;28;20088;-73
2021/12/13 07:35:40;;;;;;;10.13;5.07;;;;;;;;;;4973501;28;20031;-73
2021/12/13 07:38:17;;;;;;;6.77;5.13;;;;;;;;;;4960752;28;20039;-73
2021/12/13 07:41:00;;;;;;;8.63;4.70;;;;;;;;;;4971720;28;20090;-73
2021/12/13 07:43:34;;;;;;;12.50;8.10;;;;;;;;;;4971165;28;20069;-74
2021/12/13 07:46:19;;;;;;;9.83;5.60;;;;;;;;;;4972755;28;20026;-73
2021/12/13 07:48:44;;;;;;;7.57;4.90;;;;;;;;;;4972433;28;20014;-73
2021/12/13 07:51:15;;;;;;;7.63;5.50;;;;;;;;;;4959900;28;20475;-72
2021/12/13 07:53:59;;;;;;;8.50;5.13;;;;;;;;;;4985412;28;20042;-74
2021/12/13 07:56:59;;;;;;;7.23;4.70;;;;;;;;;;4989082;28;20019;-73
2021/12/13 07:59:27;;;;;;;8.40;5.47;;;;;;;;;;4969056;28;20186;-75
2021/12/13 08:02:25;;;;;;;6.73;4.80;;;;;;;;;;4971583;28;20039;-74
2021/12/13 08:04:54;;;;;;;8.10;4.83;;;;;;;;;;4958260;28;21471;-74
2021/12/13 08:07:45;;;;;;;7.80;4.57;;;;;;;;;;4971560;28;20379;-74
2021/12/13 08:10:28;;;;;;;6.53;5.10;;;;;;;;;;4986713;28;20141;-74
2021/12/13 08:13:09;;;;;;;10.87;6.00;;;;;;;;;;4964619;28;20034;-74
2021/12/13 08:15:39;;;;;;;7.53;5.63;;;;;;;;;;4962561;28;20449;-73
2021/12/13 08:18:30;;;;;;;11.13;5.60;;;;;;;;;;4958041;28;20028;-72
2021/12/13 08:21:21;;;;;;;11.17;4.97;;;;;;;;;;4960916;28;20042;-73
2021/12/13 08:23:53;;;;;;;9.40;5.77;;;;;;;;;;4968115;28;20031;-73
2021/12/13 08:26:32;;;;;;;6.25;4.82;;;;;;;;;;4955069;28;20118;-75
2021/12/13 08:29:01;;;;;;;7.53;5.23;;;;;;;;;;4964531;28;20038;-72
2021/12/13 08:31:32;;;;;;;12.83;6.37;;;;;;;;;;4954926;28;20376;-72
2021/12/13 08:34:06;;;;;;;8.93;5.43;;;;;;;;;;4971264;28;20034;-72
2021/12/13 08:36:38;;;;;;;8.77;5.97;;;;;;;;;;4961789;28;20050;-72
2021/12/13 08:39:14;;;;;;;7.50;5.30;;;;;;;;;;4959665;28;20511;-73
2021/12/13 08:41:51;;;;;;;7.77;5.37;;;;;;;;;;4971202;28;20026;-72
2021/12/13 08:44:26;;;;;;;6.90;4.87;;;;;;;;;;4964829;28;20045;-73
2021/12/13 08:46:52;;;;;;;5.93;4.57;;;;;;;;;;4966129;28;20061;-74
2021/12/13 08:49:32;;;;;;;7.13;5.10;;;;;;;;;;4969264;28;20082;-72
2021/12/13 08:52:30;;;;;;;10.63;4.77;;;;;;;;;;4958986;28;20051;-74
2021/12/13 08:55:08;;;;;;;8.00;5.70;;;;;;;;;;4974444;28;20065;-73
2021/12/13 08:57:36;;;;;;;8.97;5.30;;;;;;;;;;4968574;28;20065;-74
2021/12/13 09:00:17;;;;;;;9.17;4.93;;;;;;;;;;4974097;28;20026;-73
2021/12/13 09:03:12;;;;;;;8.93;5.83;;;;;;;;;;4971328;28;20031;-73
2021/12/13 09:05:39;;;;;;;9.93;6.00;;;;;;;;;;4968854;28;20588;-74
2021/12/13 09:08:10;;;;;;;7.73;5.27;;;;;;;;;;4969557;28;20031;-75
2021/12/13 09:10:47;;;;;;;8.80;5.33;;;;;;;;;;4956331;28;20023;-73
2021/12/13 09:13:17;;;;;;;13.40;5.77;;;;;;;;;;4961856;28;20521;-74
2021/12/13 09:15:43;;;;;;;13.93;5.70;;;;;;;;;;4967051;28;20097;-72
2021/12/13 09:18:17;;;;;;;9.13;6.03;;;;;;;;;;4977750;28;20030;-73
2021/12/13 09:20:49;;;;;;;9.03;5.33;;;;;;;;;;4973154;28;20121;-73
2021/12/13 09:23:20;;;;;;;6.57;4.93;;;;;;;;;;4972153;28;20100;-73
2021/12/13 09:25:48;;;;;;;8.37;5.70;;;;;;;;;;4961215;28;20743;-72
2021/12/13 09:28:21;;;;;;;10.50;5.07;;;;;;;;;;4961302;28;20073;-73
2021/12/13 09:30:53;;;;;;;9.70;6.43;;;;;;;;;;4955902;28;20047;-73
2021/12/13 09:33:45;;;;;;;10.18;5.63;;;;;;;;;;4967202;28;20029;-74
2021/12/13 09:36:17;;;;;;;;;;;;;;;;;;4967677;28;20117;-73
2021/12/13 09:39:06;;;;;;;7.23;4.40;;;;;;;;;;4969961;28;19926;-73
2021/12/13 09:41:46;;;;;;;9.33;6.10;;;;;;;;;;4960427;28;20041;-73
2021/12/13 09:44:17;;;;;;;10.57;4.70;;;;;;;;;;4958897;28;20039;-73
2021/12/13 09:46:52;;;;;;;12.20;5.33;;;;;;;;;;4967381;28;20038;-74
2021/12/13 09:49:31;;;;;;;9.50;5.13;;;;;;;;;;4964886;28;20707;-74
2021/12/13 09:52:06;;;;;;;11.73;7.33;;;;;;;;;;4965506;28;20073;-74
2021/12/13 09:54:52;;;;;;;12.60;5.70;;;;;;;;;;4964021;28;20342;-73
2021/12/13 09:57:24;;;;;;;9.77;5.67;;;;;;;;;;4952233;28;20399;-73
2021/12/13 09:59:53;;;;;;;12.50;5.00;;;;;;;;;;4962974;28;20035;-74
2021/12/13 10:02:28;;;;;;;11.20;5.17;;;;;;;;;;4969638;28;20181;-74
2021/12/13 10:04:54;;;;;;;8.17;5.13;;;;;;;;;;4962279;28;20494;-73
2021/12/13 10:07:33;;;;;;;17.83;6.93;;;;;;;;;;4968002;28;20041;-75
2021/12/13 10:10:06;;;;;;;9.57;5.63;;;;;;;;;;4964937;28;20728;-73
2021/12/13 10:12:55;;;;;;;12.53;6.47;;;;;;;;;;4966554;28;20023;-73
2021/12/13 10:15:46;;;;;;;12.77;6.50;;;;;;;;;;4964901;28;20124;-74
2021/12/13 10:18:20;;;;;;;9.80;6.20;;;;;;;;;;4971426;28;20053;-74
2021/12/13 10:20:51;;;;;;;9.83;6.10;;;;;;;;;;4964002;28;20265;-73
2021/12/13 10:23:22;;;;;;;7.80;5.60;;;;;;;;;;4970914;28;20037;-74
2021/12/13 10:25:51;;;;;;;12.60;5.43;;;;;;;;;;4967112;28;20035;-72
2021/12/13 10:28:25;;;;;;;11.43;6.60;;;;;;;;;;4967606;28;20559;-73
2021/12/13 10:30:55;;;;;;;9.53;5.70;;;;;;;;;;4966503;28;20061;-74
2021/12/13 10:33:23;;;;;;;9.70;5.73;;;;;;;;;;4983573;28;20033;-74
2021/12/13 10:35:52;;;;;;;11.63;5.87;;;;;;;;;;4965500;28;20759;-73
2021/12/13 10:38:23;;;;;;;11.13;5.33;;;;;;;;;;4964600;28;20043;-74
2021/12/13 10:40:57;;;;;;;8.45;5.68;;;;;;;;;;4981161;28;20611;-75
2021/12/13 10:43:27;;;;;;;9.30;5.70;;;;;;;;;;4961230;28;20623;-73
2021/12/13 10:46:04;;;;;;;9.73;6.30;;;;;;;;;;4969819;28;20501;-74
2021/12/13 10:48:33;;;;;;;10.90;5.70;;;;;;;;;;4969041;28;20030;-73
2021/12/13 10:51:14;;;;;;;9.00;5.90;;;;;;;;;;4966507;28;21105;-74
2021/12/13 10:53:42;;;;;;;8.10;5.70;;;;;;;;;;4984441;28;20104;-73
2021/12/13 10:56:19;;;;;;;8.70;6.10;;;;;;;;;;4971582;28;20490;-74
2021/12/13 10:58:49;;;;;;;7.33;5.23;;;;;;;;;;4964737;28;20101;-73
2021/12/13 11:01:23;;;;;;;10.97;5.67;;;;;;;;;;4967139;28;20383;-75
2021/12/13 11:03:50;;;;;;;7.03;5.27;;;;;;;;;;4959857;28;20027;-73
2021/12/13 11:06:17;;;;;;;9.80;5.80;;;;;;;;;;4967029;28;20027;-72
2021/12/13 11:08:44;;;;;;;8.57;5.90;;;;;;;;;;4961775;28;20019;-72
2021/12/13 11:11:20;;;;;;;9.50;6.00;;;;;;;;;;4967059;28;20042;-74
2021/12/13 11:13:49;;;;;;;11.40;7.50;;;;;;;;;;4960897;28;20113;-73
2021/12/13 11:16:22;;;;;;;8.07;5.67;;;;;;;;;;4963793;28;20037;-74
2021/12/13 11:18:48;;;;;;;11.60;6.27;;;;;;;;;;4959579;28;20050;-74
2021/12/13 11:21:23;;;;;;;9.83;6.00;;;;;;;;;;4960334;28;20109;-75
2021/12/13 11:23:49;;;;;;;9.90;5.77;;;;;;;;;;4962718;28;20120;-74
2021/12/13 11:26:18;;;;;;;10.50;6.13;;;;;;;;;;4965086;28;20089;-72
2021/12/13 11:28:45;;;;;;;10.67;5.60;;;;;;;;;;4973592;28;20027;-73
2021/12/13 11:31:55;;;;;;;7.70;5.27;;;;;;;;;;4961211;28;20035;-72
2021/12/13 11:34:58;;;;;;;8.63;5.47;;;;;;;;;;4963784;28;20120;-73
2021/12/13 11:37:55;;;;;;;9.50;5.57;;;;;;;;;;4958735;28;20485;-73
2021/12/13 11:41:03;;;;;;;9.57;5.40;;;;;;;;;;4966750;28;20810;-75
2021/12/13 11:43:53;;;;;;;17.13;7.60;;;;;;;;;;4965462;28;20038;-74
2021/12/13 11:46:59;;;;;;;9.07;5.57;;;;;;;;;;4971607;28;20030;-73
2021/12/13 11:49:43;;;;;;;7.07;5.07;;;;;;;;;;4965200;28;20114;-74
2021/12/13 11:52:46;;;;;;;7.90;4.67;;;;;;;;;;4971172;28;20035;-73
2021/12/13 11:55:54;;;;;;;7.67;5.03;;;;;;;;;;4959849;28;20062;-76
2021/12/13 11:58:38;;;;;;;9.43;6.00;;;;;;;;;;4963622;28;20043;-74
2021/12/13 12:01:43;;;;;;;6.97;4.97;;;;;;;;;;4964584;28;20026;-73
2021/12/13 12:04:46;;;;;;;9.07;5.63;;;;;;;;;;4982093;28;20166;-75
2021/12/13 12:07:12;;;;;;;7.30;5.03;;;;;;;;;;4966211;28;20019;-74
2021/12/13 12:09:59;;;;;;;9.07;5.47;;;;;;;;;;4960703;28;20466;-76
2021/12/13 12:13:07;;;;;;;9.17;5.07;;;;;;;;;;4969564;28;20073;-75
2021/12/13 12:15:35;;;;;;;7.10;4.23;;;;;;;;;;4958778;28;20027;-75
2021/12/13 12:18:04;;;;;;;9.37;5.30;;;;;;;;;;4963803;28;20023;-74
2021/12/13 12:20:33;;;;;;;7.73;4.17;;;;;;;;;;4958971;28;20026;-75
2021/12/13 12:23:06;;;;;;;7.80;5.33;;;;;;;;;;4960239;28;20093;-75
2021/12/13 12:25:34;;;;;;;8.27;4.37;;;;;;;;;;4965533;28;20516;-75
2021/12/13 12:28:04;;;;;;;10.73;4.50;;;;;;;;;;4959424;28;20505;-74
2021/12/13 12:30:38;;;;;;;8.03;4.53;;;;;;;;;;4968324;28;20038;-73
2021/12/13 12:33:07;;;;;;;10.00;6.13;;;;;;;;;;4969367;28;20062;-74
2021/12/13 12:35:50;;;;;;;7.37;5.10;;;;;;;;;;4968940;28;20027;-74
2021/12/13 12:38:33;;;;;;;8.47;5.23;;;;;;;;;;4966460;28;20061;-75
2021/12/13 12:41:40;;;;;;;6.03;3.90;;;;;;;;;;4962372;28;20050;-75
2021/12/13 12:44:05;;;;;;;8.77;5.07;;;;;;;;;;4960823;28;20043;-74
2021/12/13 12:46:39;;;;;;;7.77;5.73;;;;;;;;;;4967288;28;20045;-75
2021/12/13 12:49:15;;;;;;;8.63;4.33;;;;;;;;;;4964645;28;20035;-74
2021/12/13 12:51:42;;;;;;;14.07;7.97;;;;;;;;;;4968549;28;20057;-74
2021/12/13 12:54:12;;;;;;;7.97;4.53;;;;;;;;;;4960976;28;20537;-74
2021/12/13 12:56:43;;;;;;;8.40;4.30;;;;;;;;;;4965642;28;20031;-74
2021/12/13 12:59:32;;;;;;;9.48;4.07;;;;;;;;;;4968888;28;20038;-74
2021/12/13 13:02:09;;;;;;;5.70;3.50;;;;;;;;;;4953305;28;20726;-74
2021/12/13 13:04:46;;;;;;;6.17;4.07;;;;;;;;;;4958655;28;20467;-73
2021/12/13 13:07:16;;;;;;;8.70;4.43;;;;;;;;;;4961491;28;20247;-73
2021/12/13 13:09:55;;;;;;;9.17;4.70;;;;;;;;;;4966369;28;20213;-73
2021/12/13 13:12:35;;;;;;;9.40;5.10;;;;;;;;;;4967245;28;20057;-73
2021/12/13 13:15:24;;;;;;;7.17;4.27;;;;;;;;;;4967575;28;20071;-74
2021/12/13 13:17:58;;;;;;;10.50;4.00;;;;;;;;;;4980240;28;20039;-74
2021/12/13 13:20:40;;;;;;;7.47;4.60;;;;;;;;;;4960946;28;20369;-75
2021/12/13 13:23:09;;;;;;;10.23;5.37;;;;;;;;;;4961584;28;20444;-74
2021/12/13 13:25:53;;;;;;;7.50;5.00;;;;;;;;;;4968954;28;20125;-73
2021/12/13 13:28:25;;;;;;;10.10;5.20;;;;;;;;;;4961548;28;20034;-74
2021/12/13 13:31:05;;;;;;;8.13;4.97;;;;;;;;;;4961149;28;20058;-73
2021/12/13 13:33:40;;;;;;;6.17;4.40;;;;;;;;;;4968164;28;20046;-74
2021/12/13 13:36:07;;;;;;;5.40;3.97;;;;;;;;;;4965617;28;20084;-73
2021/12/13 13:38:32;;;;;;;20.23;5.23;;;;;;;;;;4954650;28;20435;-75
2021/12/13 13:40:58;;;;;;;17.53;6.23;;;;;;;;;;4966008;28;20077;-74
2021/12/13 13:43:28;;;;;;;15.30;5.90;;;;;;;;;;4972264;28;20100;-74
2021/12/13 13:45:54;;;;;;;7.50;4.90;;;;;;;;;;4974704;28;20062;-75
2021/12/13 13:48:40;;;;;;;8.20;5.23;;;;;;;;;;4964918;28;20038;-74
2021/12/13 13:51:11;;;;;;;6.47;3.50;;;;;;;;;;4965644;28;20409;-74
2021/12/13 13:53:53;;;;;;;8.90;4.73;;;;;;;;;;4975916;28;20396;-73
2021/12/13 13:56:21;;;;;;;7.88;5.22;;;;;;;;;;4963124;28;20589;-74
2021/12/13 13:58:49;;;;;;;8.50;5.00;;;;;;;;;;4966089;28;20484;-74
2021/12/13 14:01:49;;;;;;;9.93;4.17;;;;;;;;;;4969325;28;20038;-74
2021/12/13 14:04:50;;;;;;;11.77;4.87;;;;;;;;;;4985849;28;20121;-75
2021/12/13 14:07:22;;;;;;;11.13;6.77;;;;;;;;;;4965954;28;20145;-75
2021/12/13 14:10:10;;;;;;;23.90;7.70;;;;;;;;;;4955105;28;20035;-74
2021/12/13 14:12:44;;;;;;;7.80;4.80;;;;;;;;;;4965266;28;20126;-74
2021/12/13 14:15:24;;;;;;;10.30;5.47;;;;;;;;;;4969320;28;20476;-73
2021/12/13 14:18:03;;;;;;;8.60;4.87;;;;;;;;;;4968830;28;20023;-76
2021/12/13 14:20:36;;;;;;;8.37;4.87;;;;;;;;;;4969815;28;20033;-74
2021/12/13 14:23:15;;;;;;;6.47;4.90;;;;;;;;;;4968400;28;20142;-74
2021/12/13 14:25:46;;;;;;;8.40;4.80;;;;;;;;;;4967549;28;20304;-75
2021/12/13 14:28:19;;;;;;;10.43;5.30;;;;;;;;;;4962301;28;20027;-75
2021/12/13 14:30:49;;;;;;;9.17;5.00;;;;;;;;;;4955475;28;20035;-74
2021/12/13 14:33:28;;;;;;;8.97;4.73;;;;;;;;;;4957623;28;20026;-74
2021/12/13 14:35:59;;;;;;;10.33;5.27;;;;;;;;;;4968444;28;20031;-72
2021/12/13 14:38:27;;;;;;;9.05;4.90;;;;;;;;;;4968933;28;20428;-73
2021/12/13 14:40:55;;;;;;;9.50;5.80;;;;;;;;;;4968800;28;20033;-73
2021/12/13 14:43:25;;;;;;;9.23;5.80;;;;;;;;;;4968111;28;20070;-72
2021/12/13 14:45:52;;;;;;;11.03;6.00;;;;;;;;;;4967348;28;20386;-73
2021/12/13 14:48:21;;;;;;;8.43;4.87;;;;;;;;;;4968483;28;20470;-74
2021/12/13 14:50:53;;;;;;;8.10;5.40;;;;;;;;;;4969577;28;20037;-74
2021/12/13 14:53:23;;;;;;;7.87;4.60;;;;;;;;;;4980906;28;20077;-75
2021/12/13 14:55:50;;;;;;;6.93;4.87;;;;;;;;;;4969470;28;20046;-75
2021/12/13 14:58:21;;;;;;;10.40;4.83;;;;;;;;;;4965017;28;20033;-75
2021/12/13 15:01:00;;;;;;;9.03;5.43;;;;;;;;;;4957808;28;20081;-73
2021/12/13 15:03:28;;;;;;;12.37;5.97;;;;;;;;;;4968200;28;20394;-74
2021/12/13 15:06:09;;;;;;;9.37;5.93;;;;;;;;;;4966780;28;20034;-75
2021/12/13 15:08:38;;;;;;;7.07;5.07;;;;;;;;;;4966141;28;20159;-75
2021/12/13 15:11:22;;;;;;;9.93;5.10;;;;;;;;;;4968650;28;20023;-74
2021/12/13 15:14:01;;;;;;;7.67;4.90;;;;;;;;;;4961614;28;20322;-73
2021/12/13 15:16:34;;;;;;;9.20;5.77;;;;;;;;;;4950809;29;20027;-72
2021/12/13 15:19:01;;;;;;;12.37;5.40;;;;;;;;;;4969769;28;20615;-73
2021/12/13 15:21:28;;;;;;;11.40;6.10;;;;;;;;;;4969326;28;20038;-74
2021/12/13 15:24:00;;;;;;;9.10;5.17;;;;;;;;;;4960200;28;20023;-74
2021/12/13 15:26:30;;;;;;;13.57;8.05;;;;;;;;;;4960772;28;20028;-75
2021/12/13 15:29:02;;;;;;;12.73;6.20;;;;;;;;;;4965464;28;20033;-75
2021/12/13 15:31:36;;;;;;;8.57;5.00;;;;;;;;;;4967889;28;20053;-74
2021/12/13 15:34:06;;;;;;;9.60;5.47;;;;;;;;;;4969484;28;20476;-75
2021/12/13 15:36:33;;;;;;;12.70;6.70;;;;;;;;;;4957538;28;20516;-74
2021/12/13 15:39:08;;;;;;;9.73;6.40;;;;;;;;;;4956120;28;20030;-75